sensor_id;sensor_type;location;lat;lon;timestamp;pressure;altitude;pressure_sealevel;temperature;humidity
59757;BME280;45631;51.962;5.974;2023-12-28T00:01:14;100636.03;;;8.49;100.00
59757;BME280;45631;51.962;5.974;2023-12-28T00:03:43;100637.00;;;8.48;100.00
59757;BME280;45631;51.962;5.974;2023-12-28T00:06:11;100628.94;;;8.51;100.00
59757;BME280;45631;51.962;5.974;2023-12-28T00:08:42;100644.84;;;8.48;100.00
59757;BME280;45631;51.962;5.974;2023-12-28T00:11:23;100647.63;;;8.45;100.00
59757;BME280;45631;51.962;5.974;2023-12-28T00:13:52;100643.06;;;8.49;100.00
59757;BME280;45631;51.962;5.974;2023-12-28T00:16:20;100653.63;;;8.47;100.00
59757;BME280;45631;51.962;5.974;2023-12-28T00:18:48;100663.19;;;8.48;100.00
59757;BME280;45631;51.962;5.974;2023-12-28T00:21:17;100663.41;;;8.43;100.00
59757;BME280;45631;51.962;5.974;2023-12-28T00:23:46;100665.13;;;8.44;100.00
59757;BME280;45631;51.962;5.974;2023-12-28T00:26:14;100661.81;;;8.41;100.00
59757;BME280;45631;51.962;5.974;2023-12-28T00:28:52;100661.66;;;8.44;100.00
59757;BME280;45631;51.962;5.974;2023-12-28T00:31:20;100667.66;;;8.46;100.00
59757;BME280;45631;51.962;5.974;2023-12-28T00:33:48;100671.06;;;8.48;100.00
59757;BME280;45631;51.962;5.974;2023-12-28T00:36:17;100672.16;;;8.44;100.00
59757;BME280;45631;51.962;5.974;2023-12-28T00:38:45;100683.22;;;8.49;100.00
59757;BME280;45631;51.962;5.974;2023-12-28T00:41:13;100678.94;;;8.48;100.00
59757;BME280;45631;51.962;5.974;2023-12-28T00:43:41;100675.69;;;8.43;100.00
59757;BME280;45631;51.962;5.974;2023-12-28T00:46:11;100687.94;;;8.42;100.00
59757;BME280;45631;51.962;5.974;2023-12-28T00:48:40;100683.56;;;8.43;100.00
59757;BME280;45631;51.962;5.974;2023-12-28T00:51:11;100694.03;;;8.43;100.00
59757;BME280;45631;51.962;5.974;2023-12-28T00:53:39;100692.19;;;8.45;100.00
59757;BME280;45631;51.962;5.974;2023-12-28T00:56:07;100690.25;;;8.49;100.00
59757;BME280;45631;51.962;5.974;2023-12-28T00:58:39;100690.25;;;8.49;100.00
59757;BME280;45631;51.962;5.974;2023-12-28T01:01:07;100695.38;;;8.50;100.00
59757;BME280;45631;51.962;5.974;2023-12-28T01:03:37;100693.69;;;8.49;100.00
59757;BME280;45631;51.962;5.974;2023-12-28T01:06:06;100690.81;;;8.54;100.00
59757;BME280;45631;51.962;5.974;2023-12-28T01:08:34;100693.53;;;8.52;100.00
59757;BME280;45631;51.962;5.974;2023-12-28T01:11:03;100706.78;;;8.49;100.00
59757;BME280;45631;51.962;5.974;2023-12-28T01:13:31;100703.25;;;8.50;100.00
59757;BME280;45631;51.962;5.974;2023-12-28T01:16:02;100711.13;;;8.50;100.00
59757;BME280;45631;51.962;5.974;2023-12-28T01:18:31;100702.41;;;8.50;100.00
59757;BME280;45631;51.962;5.974;2023-12-28T01:21:04;100713.41;;;8.56;100.00
59757;BME280;45631;51.962;5.974;2023-12-28T01:23:32;100705.69;;;8.53;100.00
59757;BME280;45631;51.962;5.974;2023-12-28T01:26:00;100709.16;;;8.54;100.00
59757;BME280;45631;51.962;5.974;2023-12-28T01:28:29;100710.94;;;8.53;100.00
59757;BME280;45631;51.962;5.974;2023-12-28T01:30:57;100711.41;;;8.60;100.00
59757;BME280;45631;51.962;5.974;2023-12-28T01:33:25;100710.94;;;8.53;100.00
59757;BME280;45631;51.962;5.974;2023-12-28T01:35:53;100722.19;;;8.55;100.00
59757;BME280;45631;51.962;5.974;2023-12-28T01:38:23;100725.72;;;8.54;100.00
59757;BME280;45631;51.962;5.974;2023-12-28T01:40:51;100728.25;;;8.56;100.00
59757;BME280;45631;51.962;5.974;2023-12-28T01:43:22;100729.47;;;8.50;100.00
59757;BME280;45631;51.962;5.974;2023-12-28T01:45:50;100734.91;;;8.47;100.00
59757;BME280;45631;51.962;5.974;2023-12-28T01:48:18;100729.81;;;8.44;100.00
59757;BME280;45631;51.962;5.974;2023-12-28T01:50:47;100736.75;;;8.45;100.00
59757;BME280;45631;51.962;5.974;2023-12-28T01:53:15;100742.84;;;8.45;100.00
59757;BME280;45631;51.962;5.974;2023-12-28T01:55:45;100737.59;;;8.45;100.00
59757;BME280;45631;51.962;5.974;2023-12-28T01:58:13;100737.31;;;8.50;100.00
59757;BME280;45631;51.962;5.974;2023-12-28T02:00:41;100733.00;;;8.49;100.00
59757;BME280;45631;51.962;5.974;2023-12-28T02:03:09;100734.81;;;8.49;100.00
59757;BME280;45631;51.962;5.974;2023-12-28T02:05:38;100740.03;;;8.49;100.00
59757;BME280;45631;51.962;5.974;2023-12-28T02:08:07;100734.03;;;8.46;100.00
59757;BME280;45631;51.962;5.974;2023-12-28T02:10:35;100733.25;;;8.44;100.00
59757;BME280;45631;51.962;5.974;2023-12-28T02:13:04;100733.19;;;8.46;100.00
59757;BME280;45631;51.962;5.974;2023-12-28T02:15:33;100730.47;;;8.48;100.00
59757;BME280;45631;51.962;5.974;2023-12-28T02:18:11;100740.97;;;8.48;100.00
59757;BME280;45631;51.962;5.974;2023-12-28T02:20:39;100732.09;;;8.50;100.00
59757;BME280;45631;51.962;5.974;2023-12-28T02:23:09;100730.28;;;8.51;100.00
59757;BME280;45631;51.962;5.974;2023-12-28T02:25:41;100730.28;;;8.51;100.00
59757;BME280;45631;51.962;5.974;2023-12-28T02:28:09;100724.22;;;8.50;100.00
59757;BME280;45631;51.962;5.974;2023-12-28T02:30:41;100722.72;;;8.46;100.00
59757;BME280;45631;51.962;5.974;2023-12-28T02:33:12;100732.44;;;8.44;100.00
59757;BME280;45631;51.962;5.974;2023-12-28T02:35:48;100737.41;;;8.49;100.00
59757;BME280;45631;51.962;5.974;2023-12-28T02:38:20;100718.97;;;8.50;100.00
59757;BME280;45631;51.962;5.974;2023-12-28T02:40:53;100718.88;;;8.52;100.00
59757;BME280;45631;51.962;5.974;2023-12-28T02:43:22;100718.97;;;8.50;100.00
59757;BME280;45631;51.962;5.974;2023-12-28T02:45:51;100710.09;;;8.53;100.00
59757;BME280;45631;51.962;5.974;2023-12-28T02:48:19;100708.59;;;8.49;100.00
59757;BME280;45631;51.962;5.974;2023-12-28T02:50:47;100708.69;;;8.47;100.00
59757;BME280;45631;51.962;5.974;2023-12-28T02:53:16;100713.00;;;8.48;100.00
59757;BME280;45631;51.962;5.974;2023-12-28T02:55:44;100714.91;;;8.44;100.00
59757;BME280;45631;51.962;5.974;2023-12-28T02:58:14;100710.38;;;8.48;100.00
59757;BME280;45631;51.962;5.974;2023-12-28T03:00:42;100709.66;;;8.44;100.00
59757;BME280;45631;51.962;5.974;2023-12-28T03:03:10;100695.66;;;8.45;100.00
59757;BME280;45631;51.962;5.974;2023-12-28T03:05:39;100700.22;;;8.42;100.00
59757;BME280;45631;51.962;5.974;2023-12-28T03:08:08;100699.38;;;8.41;100.00
59757;BME280;45631;51.962;5.974;2023-12-28T03:10:36;100696.50;;;8.46;100.00
59757;BME280;45631;51.962;5.974;2023-12-28T03:13:04;100694.56;;;8.50;100.00
59757;BME280;45631;51.962;5.974;2023-12-28T03:15:34;100690.16;;;8.50;100.00
59757;BME280;45631;51.962;5.974;2023-12-28T03:18:02;100683.22;;;8.49;100.00
59757;BME280;45631;51.962;5.974;2023-12-28T03:20:31;100680.78;;;8.46;100.00
59757;BME280;45631;51.962;5.974;2023-12-28T03:22:59;100687.53;;;8.50;100.00
59757;BME280;45631;51.962;5.974;2023-12-28T03:25:27;100695.19;;;8.53;100.00
59757;BME280;45631;51.962;5.974;2023-12-28T03:27:56;100686.69;;;8.50;100.00
59757;BME280;45631;51.962;5.974;2023-12-28T03:30:24;100682.88;;;8.55;100.00
59757;BME280;45631;51.962;5.974;2023-12-28T03:32:54;100674.13;;;8.55;100.00
59757;BME280;45631;51.962;5.974;2023-12-28T03:35:25;100688.53;;;8.48;100.00
59757;BME280;45631;51.962;5.974;2023-12-28T03:37:53;100693.69;;;8.49;100.00
59757;BME280;45631;51.962;5.974;2023-12-28T03:40:22;100701.47;;;8.51;100.00
59757;BME280;45631;51.962;5.974;2023-12-28T03:42:50;100692.75;;;8.50;100.00
59757;BME280;45631;51.962;5.974;2023-12-28T03:45:18;100691.22;;;8.62;100.00
59757;BME280;45631;51.962;5.974;2023-12-28T03:47:47;100686.78;;;8.62;100.00
59757;BME280;45631;51.962;5.974;2023-12-28T03:50:16;100697.28;;;8.62;100.00
59757;BME280;45631;51.962;5.974;2023-12-28T03:52:45;100701.50;;;8.65;100.00
59757;BME280;45631;51.962;5.974;2023-12-28T03:55:13;100700.78;;;8.63;100.00
59757;BME280;45631;51.962;5.974;2023-12-28T03:57:41;100691.13;;;8.63;100.00
59757;BME280;45631;51.962;5.974;2023-12-28T04:00:13;100693.72;;;8.63;100.00
59757;BME280;45631;51.962;5.974;2023-12-28T04:02:43;100694.22;;;8.70;100.00
59757;BME280;45631;51.962;5.974;2023-12-28T04:05:13;100688.31;;;8.67;100.00
59757;BME280;45631;51.962;5.974;2023-12-28T04:07:42;100687.38;;;8.68;100.00
59757;BME280;45631;51.962;5.974;2023-12-28T04:10:11;100694.47;;;8.66;100.00
59757;BME280;45631;51.962;5.974;2023-12-28T04:12:39;100694.47;;;8.66;100.00
59757;BME280;45631;51.962;5.974;2023-12-28T04:15:08;100694.41;;;8.67;100.00
59757;BME280;45631;51.962;5.974;2023-12-28T04:17:36;100702.00;;;8.72;100.00
59757;BME280;45631;51.962;5.974;2023-12-28T04:20:08;100702.81;;;8.72;100.00
59757;BME280;45631;51.962;5.974;2023-12-28T04:22:36;100695.97;;;8.70;100.00
59757;BME280;45631;51.962;5.974;2023-12-28T04:25:06;100694.69;;;8.77;100.00
59757;BME280;45631;51.962;5.974;2023-12-28T04:27:35;100687.56;;;8.79;100.00
59757;BME280;45631;51.962;5.974;2023-12-28T04:30:07;100693.00;;;8.76;100.00
59757;BME280;45631;51.962;5.974;2023-12-28T04:32:35;100703.50;;;8.76;100.00
59757;BME280;45631;51.962;5.974;2023-12-28T04:35:04;100695.44;;;8.79;100.00
59757;BME280;45631;51.962;5.974;2023-12-28T04:37:32;100701.44;;;8.81;100.00
59757;BME280;45631;51.962;5.974;2023-12-28T04:40:06;100699.28;;;8.88;100.00
59757;BME280;45631;51.962;5.974;2023-12-28T04:42:34;100689.94;;;8.84;100.00
59757;BME280;45631;51.962;5.974;2023-12-28T04:45:06;100686.63;;;8.80;100.00
59757;BME280;45631;51.962;5.974;2023-12-28T04:47:35;100686.81;;;8.77;100.00
59757;BME280;45631;51.962;5.974;2023-12-28T04:50:04;100681.69;;;8.75;100.00
59757;BME280;45631;51.962;5.974;2023-12-28T04:52:33;100703.59;;;8.74;100.00
59757;BME280;45631;51.962;5.974;2023-12-28T04:55:01;100703.69;;;8.73;100.00
59757;BME280;45631;51.962;5.974;2023-12-28T04:57:30;100705.53;;;8.71;100.00
59757;BME280;45631;51.962;5.974;2023-12-28T04:59:59;100709.03;;;8.71;100.00
59757;BME280;45631;51.962;5.974;2023-12-28T05:02:29;100709.03;;;8.71;100.00
59757;BME280;45631;51.962;5.974;2023-12-28T05:04:57;100706.13;;;8.76;100.00
59757;BME280;45631;51.962;5.974;2023-12-28T05:07:26;100716.97;;;8.84;100.00
59757;BME280;45631;51.962;5.974;2023-12-28T05:09:54;100715.19;;;8.85;100.00
59757;BME280;45631;51.962;5.974;2023-12-28T05:12:22;100727.38;;;8.86;100.00
59757;BME280;45631;51.962;5.974;2023-12-28T05:14:55;100721.59;;;8.95;100.00
59757;BME280;45631;51.962;5.974;2023-12-28T05:17:23;100719.63;;;8.99;100.00
59757;BME280;45631;51.962;5.974;2023-12-28T05:19:51;100714.28;;;9.00;100.00
59757;BME280;45631;51.962;5.974;2023-12-28T05:22:20;100721.28;;;9.00;100.00
59757;BME280;45631;51.962;5.974;2023-12-28T05:24:48;100738.53;;;9.04;100.00
59757;BME280;45631;51.962;5.974;2023-12-28T05:27:16;100731.44;;;9.06;100.00
59757;BME280;45631;51.962;5.974;2023-12-28T05:29:44;100734.91;;;9.06;100.00
59757;BME280;45631;51.962;5.974;2023-12-28T05:32:14;100736.69;;;9.06;100.00
59757;BME280;45631;51.962;5.974;2023-12-28T05:34:43;100736.69;;;9.06;100.00
59757;BME280;45631;51.962;5.974;2023-12-28T05:37:11;100733.88;;;9.09;100.00
59757;BME280;45631;51.962;5.974;2023-12-28T05:39:39;100742.59;;;9.09;100.00
59757;BME280;45631;51.962;5.974;2023-12-28T05:42:08;100745.84;;;9.13;100.00
59757;BME280;45631;51.962;5.974;2023-12-28T05:44:36;100746.06;;;9.24;100.00
59757;BME280;45631;51.962;5.974;2023-12-28T05:47:04;100747.00;;;9.23;100.00
59757;BME280;45631;51.962;5.974;2023-12-28T05:49:34;100747.09;;;9.22;100.00
59757;BME280;45631;51.962;5.974;2023-12-28T05:52:02;100741.00;;;9.21;100.00
59757;BME280;45631;51.962;5.974;2023-12-28T05:54:31;100750.56;;;9.22;100.00
59757;BME280;45631;51.962;5.974;2023-12-28T05:56:58;100742.50;;;9.25;100.00
59757;BME280;45631;51.962;5.974;2023-12-28T05:59:27;100741.00;;;9.36;100.00
59757;BME280;45631;51.962;5.974;2023-12-28T06:01:55;100753.19;;;9.37;100.00
59757;BME280;45631;51.962;5.974;2023-12-28T06:04:23;100746.06;;;9.39;100.00
59757;BME280;45631;51.962;5.974;2023-12-28T06:06:53;100744.34;;;9.38;100.00
59757;BME280;45631;51.962;5.974;2023-12-28T06:09:21;100754.13;;;9.36;100.00
59757;BME280;45631;51.962;5.974;2023-12-28T06:11:49;100735.44;;;9.40;100.00
59757;BME280;45631;51.962;5.974;2023-12-28T06:14:17;100753.72;;;9.42;100.00
59757;BME280;45631;51.962;5.974;2023-12-28T06:16:45;100747.66;;;9.41;100.00
59757;BME280;45631;51.962;5.974;2023-12-28T06:19:13;100746.81;;;9.41;100.00
59757;BME280;45631;51.962;5.974;2023-12-28T06:21:42;100759.84;;;9.42;100.00
59757;BME280;45631;51.962;5.974;2023-12-28T06:24:11;100746.81;;;9.41;100.00
59757;BME280;45631;51.962;5.974;2023-12-28T06:26:40;100759.75;;;9.44;100.00
59757;BME280;45631;51.962;5.974;2023-12-28T06:29:09;100756.19;;;9.45;100.00
59757;BME280;45631;51.962;5.974;2023-12-28T06:31:37;100763.88;;;9.48;100.00
59757;BME280;45631;51.962;5.974;2023-12-28T06:34:09;100756.09;;;9.46;100.00
59757;BME280;45631;51.962;5.974;2023-12-28T06:36:38;100746.41;;;9.47;100.00
59757;BME280;45631;51.962;5.974;2023-12-28T06:39:07;100762.94;;;9.49;100.00
59757;BME280;45631;51.962;5.974;2023-12-28T06:41:36;100774.16;;;9.51;100.00
59757;BME280;45631;51.962;5.974;2023-12-28T06:44:04;100774.38;;;9.48;100.00
59757;BME280;45631;51.962;5.974;2023-12-28T06:46:32;100765.56;;;9.49;100.00
59757;BME280;45631;51.962;5.974;2023-12-28T06:49:00;100765.34;;;9.52;100.00
59757;BME280;45631;51.962;5.974;2023-12-28T06:51:30;100765.47;;;9.51;100.00
59757;BME280;45631;51.962;5.974;2023-12-28T06:53:58;100768.00;;;9.52;100.00
59757;BME280;45631;51.962;5.974;2023-12-28T06:56:29;100765.34;;;9.52;100.00
59757;BME280;45631;51.962;5.974;2023-12-28T06:58:59;100771.53;;;9.51;100.00
59757;BME280;45631;51.962;5.974;2023-12-28T07:01:27;100766.19;;;9.53;100.00
59757;BME280;45631;51.962;5.974;2023-12-28T07:03:55;100768.09;;;9.51;100.00
59757;BME280;45631;51.962;5.974;2023-12-28T07:06:25;100761.03;;;9.51;100.00
59757;BME280;45631;51.962;5.974;2023-12-28T07:08:53;100758.41;;;9.51;100.00
59757;BME280;45631;51.962;5.974;2023-12-28T07:11:24;100767.78;;;9.55;100.00
59757;BME280;45631;51.962;5.974;2023-12-28T07:13:53;100771.91;;;9.59;100.00
59757;BME280;45631;51.962;5.974;2023-12-28T07:16:25;100775.47;;;9.58;100.00
59757;BME280;45631;51.962;5.974;2023-12-28T07:18:55;100785.81;;;9.61;100.00
59757;BME280;45631;51.962;5.974;2023-12-28T07:21:23;100774.44;;;9.61;100.00
59757;BME280;45631;51.962;5.974;2023-12-28T07:23:51;100783.81;;;9.65;100.00
59757;BME280;45631;51.962;5.974;2023-12-28T07:26:19;100770.78;;;9.63;100.00
59757;BME280;45631;51.962;5.974;2023-12-28T07:28:47;100772.47;;;9.64;100.00
59757;BME280;45631;51.962;5.974;2023-12-28T07:31:22;100769.09;;;9.62;100.00
59757;BME280;45631;51.962;5.974;2023-12-28T07:33:52;100775.41;;;9.60;100.00
59757;BME280;45631;51.962;5.974;2023-12-28T07:36:22;100786.44;;;9.65;100.00
59757;BME280;45631;51.962;5.974;2023-12-28T07:38:50;100795.44;;;9.61;100.00
59757;BME280;45631;51.962;5.974;2023-12-28T07:41:18;100799.84;;;9.60;100.00
59757;BME280;45631;51.962;5.974;2023-12-28T07:43:47;100800.69;;;9.61;100.00
59757;BME280;45631;51.962;5.974;2023-12-28T07:46:16;100806.91;;;9.60;100.00
59757;BME280;45631;51.962;5.974;2023-12-28T07:48:44;100816.53;;;9.59;100.00
59757;BME280;45631;51.962;5.974;2023-12-28T07:51:14;100825.72;;;9.67;100.00
59757;BME280;45631;51.962;5.974;2023-12-28T07:53:42;100822.66;;;9.60;100.00
59757;BME280;45631;51.962;5.974;2023-12-28T07:56:10;100830.53;;;9.60;100.00
59757;BME280;45631;51.962;5.974;2023-12-28T07:58:39;100823.78;;;9.56;100.00
59757;BME280;45631;51.962;5.974;2023-12-28T08:01:09;100831.56;;;9.57;100.00
59757;BME280;45631;51.962;5.974;2023-12-28T08:03:41;100831.66;;;9.56;100.00
59757;BME280;45631;51.962;5.974;2023-12-28T08:06:09;100830.81;;;9.55;100.00
59757;BME280;45631;51.962;5.974;2023-12-28T08:08:42;100836.97;;;9.54;100.00
59757;BME280;45631;51.962;5.974;2023-12-28T08:11:10;100842.06;;;9.57;100.00
59757;BME280;45631;51.962;5.974;2023-12-28T08:13:39;100835.84;;;9.58;100.00
59757;BME280;45631;51.962;5.974;2023-12-28T08:16:07;100841.88;;;9.60;100.00
59757;BME280;45631;51.962;5.974;2023-12-28T08:18:37;100845.44;;;9.59;100.00
59757;BME280;45631;51.962;5.974;2023-12-28T08:21:05;100842.53;;;9.64;100.00
59757;BME280;45631;51.962;5.974;2023-12-28T08:23:34;100854.59;;;9.67;100.00
59757;BME280;45631;51.962;5.974;2023-12-28T08:26:04;100837.09;;;9.67;100.00
59757;BME280;45631;51.962;5.974;2023-12-28T08:28:34;100836.22;;;9.67;100.00
59757;BME280;45631;51.962;5.974;2023-12-28T08:31:02;100835.13;;;9.71;100.00
59757;BME280;45631;51.962;5.974;2023-12-28T08:33:31;100835.19;;;9.69;100.00
59757;BME280;45631;51.962;5.974;2023-12-28T08:35:59;100831.53;;;9.72;100.00
59757;BME280;45631;51.962;5.974;2023-12-28T08:38:27;100841.13;;;9.73;100.00
59757;BME280;45631;51.962;5.974;2023-12-28T08:40:56;100836.53;;;9.76;100.00
59757;BME280;45631;51.962;5.974;2023-12-28T08:43:25;100835.31;;;9.82;100.00
59757;BME280;45631;51.962;5.974;2023-12-28T08:45:53;100835.78;;;9.89;100.00
59757;BME280;45631;51.962;5.974;2023-12-28T08:48:22;100836.22;;;9.95;100.00
59757;BME280;45631;51.962;5.974;2023-12-28T08:50:50;100842.13;;;9.99;100.00
59757;BME280;45631;51.962;5.974;2023-12-28T08:53:19;100838.66;;;9.98;100.00
59757;BME280;45631;51.962;5.974;2023-12-28T08:55:47;100842.97;;;10.00;100.00
59757;BME280;45631;51.962;5.974;2023-12-28T08:58:18;100864.53;;;10.05;100.00
59757;BME280;45631;51.962;5.974;2023-12-28T09:00:48;100868.84;;;10.06;100.00
59757;BME280;45631;51.962;5.974;2023-12-28T09:03:16;100866.31;;;10.04;100.00
59757;BME280;45631;51.962;5.974;2023-12-28T09:05:46;100863.81;;;10.03;100.00
59757;BME280;45631;51.962;5.974;2023-12-28T09:08:14;100881.44;;;10.01;100.00
59757;BME280;45631;51.962;5.974;2023-12-28T09:10:42;100884.16;;;9.99;100.00
59757;BME280;45631;51.962;5.974;2023-12-28T09:13:14;100878.91;;;9.99;100.00
59757;BME280;45631;51.962;5.974;2023-12-28T09:15:47;100878.25;;;9.95;100.00
59757;BME280;45631;51.962;5.974;2023-12-28T09:18:17;100885.19;;;9.96;100.00
59757;BME280;45631;51.962;5.974;2023-12-28T09:20:46;100881.00;;;9.94;100.00
59757;BME280;45631;51.962;5.974;2023-12-28T09:23:15;100886.16;;;9.95;100.00
59757;BME280;45631;51.962;5.974;2023-12-28T09:25:44;100880.13;;;9.93;100.00
59757;BME280;45631;51.962;5.974;2023-12-28T09:28:12;100885.19;;;9.96;100.00
59757;BME280;45631;51.962;5.974;2023-12-28T09:30:41;100883.41;;;9.97;100.00
59757;BME280;45631;51.962;5.974;2023-12-28T09:33:10;100885.84;;;10.00;100.00
59757;BME280;45631;51.962;5.974;2023-12-28T09:35:39;100884.72;;;10.04;100.00
59757;BME280;45631;51.962;5.974;2023-12-28T09:38:09;100883.50;;;10.10;100.00
59757;BME280;45631;51.962;5.974;2023-12-28T09:40:37;100879.72;;;10.14;100.00
59757;BME280;45631;51.962;5.974;2023-12-28T09:43:13;100887.50;;;10.15;100.00
59757;BME280;45631;51.962;5.974;2023-12-28T09:45:46;100877.88;;;10.16;100.00
59757;BME280;45631;51.962;5.974;2023-12-28T09:48:16;100880.50;;;10.16;100.00
59757;BME280;45631;51.962;5.974;2023-12-28T09:50:49;100908.28;;;10.20;100.00
59757;BME280;45631;51.962;5.974;2023-12-28T09:53:18;100897.00;;;10.18;100.00
59757;BME280;45631;51.962;5.974;2023-12-28T09:55:46;100892.59;;;10.19;100.00
59757;BME280;45631;51.962;5.974;2023-12-28T09:58:17;100897.75;;;10.20;100.00
59757;BME280;45631;51.962;5.974;2023-12-28T10:00:46;100892.09;;;10.26;100.00
59757;BME280;45631;51.962;5.974;2023-12-28T10:03:19;100900.66;;;10.30;100.00
59757;BME280;45631;51.962;5.974;2023-12-28T10:05:48;100889.00;;;10.34;100.00
59757;BME280;45631;51.962;5.974;2023-12-28T10:08:16;100902.13;;;10.34;100.00
59757;BME280;45631;51.962;5.974;2023-12-28T10:10:44;100903.94;;;10.34;100.00
59757;BME280;45631;51.962;5.974;2023-12-28T10:13:18;100896.81;;;10.36;100.00
59757;BME280;45631;51.962;5.974;2023-12-28T10:15:46;100896.88;;;10.34;100.00
59757;BME280;45631;51.962;5.974;2023-12-28T10:18:18;100909.84;;;10.37;100.00
59757;BME280;45631;51.962;5.974;2023-12-28T10:20:50;100900.72;;;10.43;100.00
59757;BME280;45631;51.962;5.974;2023-12-28T10:23:22;100916.44;;;10.44;100.00
59757;BME280;45631;51.962;5.974;2023-12-28T10:25:55;100902.41;;;10.44;100.00
59757;BME280;45631;51.962;5.974;2023-12-28T10:28:24;100896.03;;;10.48;100.00
59757;BME280;45631;51.962;5.974;2023-12-28T10:30:54;100898.56;;;10.49;100.00
59757;BME280;45631;51.962;5.974;2023-12-28T10:33:25;100884.56;;;10.49;100.00
59757;BME280;45631;51.962;5.974;2023-12-28T10:35:57;100895.09;;;10.49;100.00
59757;BME280;45631;51.962;5.974;2023-12-28T10:38:34;100890.66;;;10.49;100.00
59757;BME280;45631;51.962;5.974;2023-12-28T10:41:04;100887.41;;;10.46;100.00
59757;BME280;45631;51.962;5.974;2023-12-28T10:43:40;100889.94;;;10.47;100.00
59757;BME280;45631;51.962;5.974;2023-12-28T10:46:15;100886.06;;;10.53;100.00
59757;BME280;45631;51.962;5.974;2023-12-28T10:48:53;100902.78;;;10.52;100.00
59757;BME280;45631;51.962;5.974;2023-12-28T10:51:26;100898.28;;;10.54;100.00
59757;BME280;45631;51.962;5.974;2023-12-28T10:54:04;100904.38;;;10.55;100.00
59757;BME280;45631;51.962;5.974;2023-12-28T10:56:42;100908.78;;;10.54;100.00
59757;BME280;45631;51.962;5.974;2023-12-28T10:59:17;100889.34;;;10.57;100.00
59757;BME280;45631;51.962;5.974;2023-12-28T11:01:51;100903.44;;;10.56;100.00
59757;BME280;45631;51.962;5.974;2023-12-28T11:04:24;100905.22;;;10.55;100.00
59757;BME280;45631;51.962;5.974;2023-12-28T11:06:55;100907.56;;;10.60;100.00
59757;BME280;45631;51.962;5.974;2023-12-28T11:09:24;100903.78;;;10.64;100.00
59757;BME280;45631;51.962;5.974;2023-12-28T11:11:55;100905.16;;;10.70;100.00
59757;BME280;45631;51.962;5.974;2023-12-28T11:14:27;100897.69;;;10.63;100.00
59757;BME280;45631;51.962;5.974;2023-12-28T11:16:55;100881.91;;;10.63;100.00
59757;BME280;45631;51.962;5.974;2023-12-28T11:19:28;100891.47;;;10.64;100.00
59757;BME280;45631;51.962;5.974;2023-12-28T11:21:57;100894.84;;;10.67;100.00
59757;BME280;45631;51.962;5.974;2023-12-28T11:24:27;100887.91;;;10.65;100.00
59757;BME280;45631;51.962;5.974;2023-12-28T11:26:56;100884.34;;;10.67;100.00
59757;BME280;45631;51.962;5.974;2023-12-28T11:29:25;100879.63;;;10.72;100.00
59757;BME280;45631;51.962;5.974;2023-12-28T11:31:53;100882.25;;;10.72;100.00
59757;BME280;45631;51.962;5.974;2023-12-28T11:34:24;100873.41;;;10.73;100.00
59757;BME280;45631;51.962;5.974;2023-12-28T11:36:56;100869.84;;;10.74;100.00
59757;BME280;45631;51.962;5.974;2023-12-28T11:39:31;100881.41;;;10.71;100.00
59757;BME280;45631;51.962;5.974;2023-12-28T11:42:01;100871.81;;;10.70;100.00
59757;BME280;45631;51.962;5.974;2023-12-28T11:44:31;100873.59;;;10.70;100.00
59757;BME280;45631;51.962;5.974;2023-12-28T11:46:59;100875.84;;;10.76;100.00
59757;BME280;45631;51.962;5.974;2023-12-28T11:49:27;100867.75;;;10.79;100.00
59757;BME280;45631;51.962;5.974;2023-12-28T11:51:58;100879.22;;;10.78;100.00
59757;BME280;45631;51.962;5.974;2023-12-28T11:54:27;100865.41;;;10.74;100.00
59757;BME280;45631;51.962;5.974;2023-12-28T11:56:55;100872.34;;;10.75;100.00
59757;BME280;45631;51.962;5.974;2023-12-28T11:59:24;100874.25;;;10.73;100.00
59757;BME280;45631;51.962;5.974;2023-12-28T12:01:52;100869.94;;;10.72;100.00
59757;BME280;45631;51.962;5.974;2023-12-28T12:04:21;100865.41;;;10.74;100.00
59757;BME280;45631;51.962;5.974;2023-12-28T12:06:49;100864.03;;;10.69;100.00
59757;BME280;45631;51.962;5.974;2023-12-28T12:09:20;100868.56;;;10.67;100.00
59757;BME280;45631;51.962;5.974;2023-12-28T12:11:51;100874.66;;;10.67;100.00
59757;BME280;45631;51.962;5.974;2023-12-28T12:14:20;100870.31;;;10.66;100.00
59757;BME280;45631;51.962;5.974;2023-12-28T12:16:51;100865.16;;;10.64;100.00
59757;BME280;45631;51.962;5.974;2023-12-28T12:19:20;100865.00;;;10.68;100.00
59757;BME280;45631;51.962;5.974;2023-12-28T12:21:49;100859.28;;;10.61;100.00
59757;BME280;45631;51.962;5.974;2023-12-28T12:24:17;100867.06;;;10.62;100.00
59757;BME280;45631;51.962;5.974;2023-12-28T12:26:47;100869.03;;;10.59;100.00
59757;BME280;45631;51.962;5.974;2023-12-28T12:29:16;100866.63;;;10.56;100.00
59757;BME280;45631;51.962;5.974;2023-12-28T12:31:52;100854.41;;;10.55;100.00
59757;BME280;45631;51.962;5.974;2023-12-28T12:34:20;100841.16;;;10.56;100.00
59757;BME280;45631;51.962;5.974;2023-12-28T12:36:49;100845.69;;;10.54;100.00
59757;BME280;45631;51.962;5.974;2023-12-28T12:39:23;100840.22;;;10.57;100.00
59757;BME280;45631;51.962;5.974;2023-12-28T12:41:53;100843.06;;;10.54;100.00
59757;BME280;45631;51.962;5.974;2023-12-28T12:44:24;100835.16;;;10.54;100.00
59757;BME280;45631;51.962;5.974;2023-12-28T12:46:58;100834.31;;;10.54;100.00
59757;BME280;45631;51.962;5.974;2023-12-28T12:49:27;100837.69;;;10.56;100.00
59757;BME280;45631;51.962;5.974;2023-12-28T12:51:55;100841.47;;;10.52;100.00
59757;BME280;45631;51.962;5.974;2023-12-28T12:54:26;100842.19;;;10.54;100.00
59757;BME280;45631;51.962;5.974;2023-12-28T12:56:56;100841.38;;;10.53;100.00
59757;BME280;45631;51.962;5.974;2023-12-28T12:59:25;100845.47;;;10.57;100.00